Time;durP1;ratioP1;P1;durP2;ratioP2;P2;SDS_P1;SDS_P2;PMS_P1;PMS_P2;Temp;Humidity;BMP_temperature;BMP_pressure;BME280_temperature;BME280_humidity;BME280_pressure;Samples;Min_cycle;Max_cycle;Signal;HPM_P1;HPM_P2
2022/05/03 00:02:00;;;;;;;7.80;7.00;;;;;;;;;;5089792;28;20046;-56
2022/05/03 00:04:48;;;;;;;6.95;6.35;;;;;;;;;;5092330;28;20119;-57
2022/05/03 00:07:42;;;;;;;7.68;6.68;;;;;;;;;;5110311;28;20481;-57
2022/05/03 00:13:49;;;;;;;10.30;7.47;;;;;;;;;;5110470;28;20040;-57
2022/05/03 00:16:27;;;;;;;8.18;7.35;;;;;;;;;;5110631;28;20047;-58
2022/05/03 00:19:05;;;;;;;9.68;8.07;;;;;;;;;;5110514;28;20046;-58
2022/05/03 00:21:32;;;;;;;7.78;6.55;;;;;;;;;;5092083;28;20032;-57
2022/05/03 00:24:29;;;;;;;8.65;7.85;;;;;;;;;;5109290;28;20024;-57
2022/05/03 00:27:03;;;;;;;8.38;7.47;;;;;;;;;;5110448;28;20074;-57
2022/05/03 00:36:00;;;;;;;9.23;8.15;;;;;;;;;;5042784;28;20029;-57
2022/05/03 00:38:34;;;;;;;7.78;6.97;;;;;;;;;;5047607;28;20131;-58
2022/05/03 00:41:22;;;;;;;10.27;7.30;;;;;;;;;;5029865;28;20065;-57
2022/05/03 00:44:55;;;;;;;14.25;9.40;;;;;;;;;;5047465;28;20026;-57
2022/05/03 00:47:31;;;;;;;;;;;;;;;;;;;;;
2022/05/03 00:53:54;;;;;;;11.30;9.77;;;;;;;;;;4988360;28;20095;-57
2022/05/03 00:56:59;;;;;;;11.77;9.93;;;;;;;;;;4918122;29;20063;-58
2022/05/03 01:00:00;;;;;;;12.20;9.32;;;;;;;;;;5009462;28;20065;-57
2022/05/03 01:02:54;;;;;;;10.73;9.05;;;;;;;;;;5109469;28;20020;-57
2022/05/03 01:05:44;;;;;;;9.30;8.40;;;;;;;;;;5109260;28;20048;-57
2022/05/03 01:08:24;;;;;;;;;;;;;;;;;;;;;
2022/05/03 01:11:29;;;;;;;12.50;9.10;;;;;;;;;;5109210;28;20043;-58
2022/05/03 01:14:33;;;;;;;12.32;9.65;;;;;;;;;;5046578;28;20037;-58
2022/05/03 01:17:26;;;;;;;11.95;9.45;;;;;;;;;;5046855;28;20045;-57
2022/05/03 01:20:05;;;;;;;11.05;8.93;;;;;;;;;;5047422;28;20026;-57
2022/05/03 01:23:09;;;;;;;9.95;8.93;;;;;;;;;;5093593;28;20066;-57
2022/05/03 01:25:53;;;;;;;9.75;8.73;;;;;;;;;;5109434;28;20038;-57
2022/05/03 01:28:53;;;;;;;11.50;9.93;;;;;;;;;;5109177;28;20055;-57
2022/05/03 01:31:26;;;;;;;12.45;10.30;;;;;;;;;;5090466;28;20051;-57
2022/05/03 01:34:26;;;;;;;;;;;;;;;;;;;;;
2022/05/03 01:40:14;;;;;;;12.63;11.35;;;;;;;;;;5066329;28;20092;-57
2022/05/03 01:43:06;;;;;;;14.05;11.85;;;;;;;;;;5048068;28;20063;-57
2022/05/03 01:45:53;;;;;;;13.32;11.23;;;;;;;;;;5067082;28;20037;-56
2022/05/03 01:51:40;;;;;;;12.90;11.70;;;;;;;;;;5099207;28;20058;-57
2022/05/03 02:06:51;;;;;;;13.77;12.38;;;;;;;;;;5100448;28;20055;-55
2022/05/03 02:09:42;;;;;;;14.00;12.52;;;;;;;;;;5108484;28;20334;-57
2022/05/03 02:12:08;;;;;;;;;;;;;;;;;;5108634;28;20028;-57
2022/05/03 02:15:20;;;;;;;16.45;11.80;;;;;;;;;;5108612;28;19987;-57
2022/05/03 02:20:54;;;;;;;14.13;12.52;;;;;;;;;;5057082;28;20152;-55
2022/05/03 02:29:50;;;;;;;14.60;13.07;;;;;;;;;;5091782;28;20040;-57
2022/05/03 02:35:51;;;;;;;14.45;12.88;;;;;;;;;;5046146;28;20037;-57
2022/05/03 02:38:41;;;;;;;16.38;14.77;;;;;;;;;;5045825;28;20033;-57
2022/05/03 02:41:15;;;;;;;15.55;13.98;;;;;;;;;;5106285;28;20126;-57
2022/05/03 02:44:31;;;;;;;16.63;14.65;;;;;;;;;;5108533;28;20024;-57
2022/05/03 02:47:15;;;;;;;15.27;13.68;;;;;;;;;;5104474;28;20067;-57
2022/05/03 02:50:06;;;;;;;16.00;14.38;;;;;;;;;;5111964;28;20092;-57
2022/05/03 02:52:41;;;;;;;16.88;14.23;;;;;;;;;;5112499;28;20038;-57
2022/05/03 02:55:16;;;;;;;15.65;14.10;;;;;;;;;;5111419;28;20050;-57
2022/05/03 02:58:14;;;;;;;15.55;13.35;;;;;;;;;;5093240;28;20047;-58
2022/05/03 03:04:13;;;;;;;15.85;13.25;;;;;;;;;;5111514;28;20023;-57
2022/05/03 03:07:24;;;;;;;13.82;12.43;;;;;;;;;;5110438;28;20076;-57
2022/05/03 03:10:12;;;;;;;;;;;;;;;;;;5069609;28;20051;-57
2022/05/03 03:13:20;;;;;;;;;;;;;;;;;;;;;
2022/05/03 03:19:17;;;;;;;14.95;13.35;;;;;;;;;;5088946;28;20035;-57
2022/05/03 03:21:55;;;;;;;14.32;12.20;;;;;;;;;;5048664;28;20033;-57
2022/05/03 03:27:47;;;;;;;20.80;14.98;;;;;;;;;;5049071;28;20120;-57
2022/05/03 03:30:53;;;;;;;16.05;13.10;;;;;;;;;;5049037;28;20080;-57
2022/05/03 03:33:46;;;;;;;15.80;14.15;;;;;;;;;;5048775;28;20100;-57
2022/05/03 03:42:25;;;;;;;15.02;13.48;;;;;;;;;;5040374;28;20029;-58
2022/05/03 03:45:23;;;;;;;15.02;13.43;;;;;;;;;;5050962;28;20112;-57
2022/05/03 03:51:37;;;;;;;18.05;12.90;;;;;;;;;;4998958;28;20030;-58
2022/05/03 03:54:24;;;;;;;14.30;12.88;;;;;;;;;;5008746;28;20042;-57
2022/05/03 03:57:07;;;;;;;18.30;13.88;;;;;;;;;;5090606;28;20040;-56
2022/05/03 04:00:08;;;;;;;14.82;13.13;;;;;;;;;;5108922;28;20028;-57
2022/05/03 04:08:51;;;;;;;13.95;12.50;;;;;;;;;;5094069;28;20040;-57
2022/05/03 04:11:39;;;;;;;14.02;12.57;;;;;;;;;;5109876;28;20055;-57
2022/05/03 04:17:23;;;;;;;16.05;13.05;;;;;;;;;;5067220;28;20120;-57
2022/05/03 04:19:59;;;;;;;15.00;13.43;;;;;;;;;;5067895;28;20035;-58
2022/05/03 04:22:50;;;;;;;;;;;;;;;;;;;;;
2022/05/03 04:25:32;;;;;;;;;;;;;;;;;;;;;
2022/05/03 04:28:37;;;;;;;15.90;14.10;;;;;;;;;;5109701;28;20052;-57
2022/05/03 04:31:40;;;;;;;15.43;13.80;;;;;;;;;;5064615;28;20047;-57
2022/05/03 04:34:15;;;;;;;14.75;13.20;;;;;;;;;;5065328;28;20059;-57
2022/05/03 04:37:04;;;;;;;16.52;14.02;;;;;;;;;;5095591;28;20531;-57
2022/05/03 04:39:55;;;;;;;13.35;12.02;;;;;;;;;;5053230;28;20047;-57
2022/05/03 04:42:39;;;;;;;16.40;14.23;;;;;;;;;;5095890;28;20025;-57
2022/05/03 04:45:27;;;;;;;15.45;14.05;;;;;;;;;;5093768;28;20362;-57
2022/05/03 04:48:34;;;;;;;13.18;11.85;;;;;;;;;;5095961;28;20032;-57
2022/05/03 04:51:37;;;;;;;;;;;;;;;;;;;;;
2022/05/03 04:54:15;;;;;;;14.27;12.85;;;;;;;;;;5095502;28;20028;-57
2022/05/03 04:56:47;;;;;;;15.68;13.05;;;;;;;;;;5096242;28;20032;-58
2022/05/03 04:59:31;;;;;;;;;;;;;;;;;;;;;
2022/05/03 05:02:07;;;;;;;14.07;12.77;;;;;;;;;;5095315;28;20028;-59
2022/05/03 05:10:55;;;;;;;13.52;12.20;;;;;;;;;;5057088;28;20037;-59
2022/05/03 05:13:52;;;;;;;18.65;12.70;;;;;;;;;;5093825;28;20061;-58
2022/05/03 05:16:44;;;;;;;15.98;14.48;;;;;;;;;;5094409;28;20043;-56
2022/05/03 05:19:30;;;;;;;19.13;12.85;;;;;;;;;;5095849;28;20024;-57
2022/05/03 05:25:55;;;;;;;15.52;13.93;;;;;;;;;;5087577;28;20039;-57
2022/05/03 05:28:24;;;;;;;13.90;12.48;;;;;;;;;;5052631;28;20494;-58
2022/05/03 05:31:18;;;;;;;15.43;13.50;;;;;;;;;;5093482;28;20047;-57
2022/05/03 05:34:13;;;;;;;14.02;12.50;;;;;;;;;;5095023;28;20473;-57
2022/05/03 05:36:48;;;;;;;12.35;11.25;;;;;;;;;;5052690;28;20455;-57
2022/05/03 05:39:24;;;;;;;11.93;10.73;;;;;;;;;;5095000;28;20515;-57
2022/05/03 05:45:10;;;;;;;13.57;11.75;;;;;;;;;;5094689;28;20032;-58
2022/05/03 05:48:00;;;;;;;12.57;11.40;;;;;;;;;;5077373;28;20378;-56
2022/05/03 05:50:57;;;;;;;14.45;12.25;;;;;;;;;;5087516;28;20473;-57
2022/05/03 05:53:56;;;;;;;13.00;11.40;;;;;;;;;;5076387;28;20127;-57
2022/05/03 05:56:37;;;;;;;13.30;12.00;;;;;;;;;;5051822;28;20059;-57
2022/05/03 05:59:15;;;;;;;13.25;11.90;;;;;;;;;;5049604;28;20052;-56
2022/05/03 06:05:16;;;;;;;12.65;11.50;;;;;;;;;;5052497;28;20043;-57
2022/05/03 06:08:12;;;;;;;12.82;10.82;;;;;;;;;;5051421;28;20115;-58
2022/05/03 06:11:11;;;;;;;12.10;10.88;;;;;;;;;;5052001;28;20029;-57
2022/05/03 06:13:48;;;;;;;12.55;11.35;;;;;;;;;;5077795;28;20024;-57
2022/05/03 06:16:42;;;;;;;13.00;11.63;;;;;;;;;;5076698;28;20218;-56
2022/05/03 06:22:25;;;;;;;12.27;11.10;;;;;;;;;;5094034;28;20047;-58
2022/05/03 06:25:23;;;;;;;;;;;;;;;;;;;;;
2022/05/03 06:28:23;;;;;;;12.65;11.43;;;;;;;;;;5094559;28;20480;-58
2022/05/03 06:31:37;;;;;;;11.88;10.82;;;;;;;;;;5062591;28;20123;-58
2022/05/03 06:34:10;;;;;;;13.05;11.60;;;;;;;;;;5061829;28;20032;-59
2022/05/03 06:39:58;;;;;;;;;;;;;;;;;;;;;
2022/05/03 06:45:16;;;;;;;9.27;8.40;;;;;;;;;;5094850;28;20028;-58
2022/05/03 06:48:05;;;;;;;;;;;;;;;;;;;;;
2022/05/03 06:50:59;;;;;;;10.20;9.18;;;;;;;;;;5092126;28;20036;-58
2022/05/03 06:53:54;;;;;;;9.65;8.77;;;;;;;;;;5093536;28;20531;-58
2022/05/03 06:56:49;;;;;;;10.27;9.23;;;;;;;;;;5092253;28;20474;-58
2022/05/03 07:00:05;;;;;;;;;;;;;;;;;;;;;
2022/05/03 07:02:55;;;;;;;9.38;8.43;;;;;;;;;;5030861;28;20021;-58
2022/05/03 07:05:53;;;;;;;8.63;7.80;;;;;;;;;;5094046;28;20062;-58
2022/05/03 07:08:36;;;;;;;11.15;7.57;;;;;;;;;;5054702;28;20286;-56
2022/05/03 07:11:21;;;;;;;9.70;8.73;;;;;;;;;;5073742;28;20027;-56
2022/05/03 07:23:11;;;;;;;12.38;9.63;;;;;;;;;;5011652;28;20041;-58
2022/05/03 07:28:56;;;;;;;10.43;9.32;;;;;;;;;;5064223;28;20492;-57
2022/05/03 07:31:32;;;;;;;9.98;8.90;;;;;;;;;;5051204;28;20037;-57
2022/05/03 07:34:12;;;;;;;11.43;9.93;;;;;;;;;;5070940;28;20474;-58
2022/05/03 07:37:07;;;;;;;11.20;10.15;;;;;;;;;;5074029;28;20108;-57
2022/05/03 07:39:33;;;;;;;14.07;10.35;;;;;;;;;;5069490;28;20462;-58
2022/05/03 07:42:17;;;;;;;12.35;9.95;;;;;;;;;;5076504;28;20414;-57
2022/05/03 07:48:20;;;;;;;10.35;9.23;;;;;;;;;;5051324;28;20105;-58
2022/05/03 07:51:03;;;;;;;12.13;8.95;;;;;;;;;;5076353;28;20021;-58
2022/05/03 07:53:57;;;;;;;10.73;8.48;;;;;;;;;;5058485;28;20470;-57
2022/05/03 07:56:29;;;;;;;10.05;8.43;;;;;;;;;;5058530;28;20133;-58
2022/05/03 07:59:06;;;;;;;16.48;9.77;;;;;;;;;;5076462;28;20060;-58
2022/05/03 08:01:42;;;;;;;10.13;9.00;;;;;;;;;;5055622;28;20032;-58
2022/05/03 08:04:18;;;;;;;10.27;9.38;;;;;;;;;;5077398;28;20056;-57
2022/05/03 08:06:50;;;;;;;10.32;9.35;;;;;;;;;;5082229;28;20493;-58
2022/05/03 08:12:30;;;;;;;9.68;8.75;;;;;;;;;;5096294;28;20043;-57
2022/05/03 08:15:01;;;;;;;9.85;8.95;;;;;;;;;;5097511;28;20020;-57
2022/05/03 08:17:36;;;;;;;11.18;8.85;;;;;;;;;;5077828;28;20537;-57
2022/05/03 08:20:32;;;;;;;9.02;8.02;;;;;;;;;;5053489;28;20032;-57
2022/05/03 08:23:16;;;;;;;10.77;9.65;;;;;;;;;;5035701;28;20033;-58
2022/05/03 08:28:53;;;;;;;9.75;8.68;;;;;;;;;;5053780;28;20087;-57
2022/05/03 08:31:31;;;;;;;10.52;9.50;;;;;;;;;;5054468;28;20451;-58
2022/05/03 08:34:01;;;;;;;11.52;8.98;;;;;;;;;;5054133;28;20039;-58
2022/05/03 08:42:31;;;;;;;9.93;8.98;;;;;;;;;;5054236;28;20040;-58
2022/05/03 08:47:56;;;;;;;8.88;7.95;;;;;;;;;;5053615;28;20181;-59
2022/05/03 08:50:43;;;;;;;7.32;6.63;;;;;;;;;;5054158;28;20074;-59
2022/05/03 08:53:10;;;;;;;11.43;7.47;;;;;;;;;;5053736;28;20051;-59
2022/05/03 08:55:53;;;;;;;9.52;7.60;;;;;;;;;;5053266;28;20037;-59
2022/05/03 08:58:38;;;;;;;7.85;6.78;;;;;;;;;;5054339;28;20114;-59
2022/05/03 09:01:53;;;;;;;6.40;5.80;;;;;;;;;;5034795;28;20029;-58
2022/05/03 09:04:27;;;;;;;6.60;5.97;;;;;;;;;;5081244;28;20032;-57
2022/05/03 09:07:07;;;;;;;;;;;;;;;;;;;;;
2022/05/03 09:10:24;;;;;;;7.15;5.32;;;;;;;;;;5092051;28;20060;-57
2022/05/03 09:13:11;;;;;;;6.90;5.50;;;;;;;;;;5074936;28;20516;-56
2022/05/03 09:16:14;;;;;;;6.15;5.05;;;;;;;;;;5073124;28;20033;-57
2022/05/03 09:19:00;;;;;;;;;;;;;;;;;;;;;
2022/05/03 09:24:44;;;;;;;4.53;4.13;;;;;;;;;;5044907;28;20055;-57
2022/05/03 09:28:42;;;;;;;;;;;;;;;;;;;;;
2022/05/03 09:30:50;;;;;;;5.43;4.22;;;;;;;;;;5060312;28;20173;-57
2022/05/03 09:39:58;;;;;;;4.28;3.50;;;;;;;;;;4993923;28;20084;-58
2022/05/03 09:42:54;;;;;;;4.68;3.65;;;;;;;;;;5002634;28;20143;-58
2022/05/03 09:45:28;;;;;;;4.63;4.10;;;;;;;;;;5012350;28;20518;-58
2022/05/03 09:51:23;;;;;;;4.78;4.28;;;;;;;;;;5046778;28;20124;-58
2022/05/03 09:54:09;;;;;;;;;;;;;;;;;;;;;
2022/05/03 09:56:58;;;;;;;;;;;;;;;;;;;;;
2022/05/03 09:59:32;;;;;;;4.10;3.70;;;;;;;;;;5047026;28;20040;-58
2022/05/03 10:05:13;;;;;;;4.70;3.45;;;;;;;;;;5094751;28;20066;-58
2022/05/03 10:08:00;;;;;;;5.05;4.07;;;;;;;;;;5094610;28;20024;-58
2022/05/03 10:10:45;;;;;;;;;;;;;;;;;;;;;
2022/05/03 10:13:26;;;;;;;4.25;3.85;;;;;;;;;;5108081;28;20051;-58
2022/05/03 10:22:33;;;;;;;5.53;3.92;;;;;;;;;;5092166;28;20059;-58
2022/05/03 10:25:27;;;;;;;5.35;4.60;;;;;;;;;;5088282;28;20032;-59
2022/05/03 10:28:13;;;;;;;;;;;;;;;;;;;;;
2022/05/03 10:30:46;;;;;;;4.00;3.33;;;;;;;;;;5106303;28;20051;-59
2022/05/03 10:33:35;;;;;;;6.95;4.53;;;;;;;;;;5106989;28;20043;-58
2022/05/03 10:36:08;;;;;;;6.45;3.85;;;;;;;;;;5105815;28;20054;-58
2022/05/03 10:38:56;;;;;;;8.60;4.80;;;;;;;;;;5106232;28;20028;-58
2022/05/03 10:47:41;;;;;;;5.18;4.60;;;;;;;;;;5098491;28;20085;-58
2022/05/03 10:50:42;;;;;;;5.63;4.28;;;;;;;;;;5106559;28;20024;-59
2022/05/03 10:53:30;;;;;;;4.28;3.88;;;;;;;;;;5088884;28;20024;-58
2022/05/03 10:56:31;;;;;;;5.70;4.57;;;;;;;;;;5106527;28;20023;-59
2022/05/03 10:59:16;;;;;;;4.53;3.70;;;;;;;;;;5106433;28;20032;-59
2022/05/03 11:05:49;;;;;;;4.88;4.45;;;;;;;;;;5081764;28;20418;-59
2022/05/03 11:08:37;;;;;;;6.47;4.45;;;;;;;;;;5083876;28;20044;-59
2022/05/03 11:11:35;;;;;;;4.47;3.88;;;;;;;;;;5110181;28;20053;-59
2022/05/03 11:22:56;;;;;;;5.47;3.92;;;;;;;;;;5107595;28;20035;-58
2022/05/03 11:31:56;;;;;;;5.05;4.55;;;;;;;;;;5084189;28;20086;-58
2022/05/03 11:34:38;;;;;;;5.85;3.95;;;;;;;;;;5031433;28;20034;-59
2022/05/03 11:37:07;;;;;;;7.35;3.65;;;;;;;;;;5084471;28;20039;-58
2022/05/03 11:39:55;;;;;;;5.30;3.25;;;;;;;;;;5083156;28;20036;-58
2022/05/03 11:42:44;;;;;;;5.32;4.05;;;;;;;;;;5085505;28;20020;-58
2022/05/03 11:45:38;;;;;;;4.50;3.95;;;;;;;;;;5083519;28;20060;-58
2022/05/03 11:48:30;;;;;;;4.55;3.65;;;;;;;;;;5083642;28;20052;-58
2022/05/03 12:03:15;;;;;;;5.85;4.28;;;;;;;;;;5044530;28;20044;-58
2022/05/03 12:05:57;;;;;;;8.25;3.92;;;;;;;;;;5027237;28;20037;-58
2022/05/03 12:08:24;;;;;;;5.45;3.55;;;;;;;;;;5043342;28;20125;-60
2022/05/03 12:11:09;;;;;;;6.00;4.68;;;;;;;;;;5022478;28;20033;-58
2022/05/03 12:14:04;;;;;;;5.18;3.72;;;;;;;;;;5043308;28;20033;-58
2022/05/03 12:16:49;;;;;;;;;;;;;;;;;;;;;
2022/05/03 12:19:34;;;;;;;7.57;4.57;;;;;;;;;;5043939;28;20102;-58
2022/05/03 12:25:11;;;;;;;5.22;4.57;;;;;;;;;;5088834;28;20089;-58
2022/05/03 12:27:47;;;;;;;4.32;3.92;;;;;;;;;;5089041;28;20033;-58
2022/05/03 12:30:44;;;;;;;;;;;;;;;;;;;;;
2022/05/03 12:33:23;;;;;;;5.90;4.30;;;;;;;;;;5106112;28;20103;-58
2022/05/03 12:36:17;;;;;;;4.00;3.60;;;;;;;;;;5086533;28;20119;-58
2022/05/03 12:51:50;;;;;;;5.45;4.15;;;;;;;;;;5076479;28;20043;-58
2022/05/03 12:54:35;;;;;;;4.07;3.17;;;;;;;;;;5071309;28;20036;-58
2022/05/03 13:00:07;;;;;;;3.65;3.00;;;;;;;;;;5104826;28;20030;-58
2022/05/03 13:03:00;;;;;;;6.57;3.80;;;;;;;;;;5104634;28;20103;-59
2022/05/03 13:05:48;;;;;;;10.75;4.65;;;;;;;;;;5037192;28;20040;-58
2022/05/03 13:12:04;;;;;;;;;;;;;;;;;;;;;
2022/05/03 13:14:55;;;;;;;10.68;4.88;;;;;;;;;;5044124;28;20105;-59
2022/05/03 13:20:28;;;;;;;6.97;4.82;;;;;;;;;;5044885;28;20040;-58
2022/05/03 13:26:14;;;;;;;11.00;5.38;;;;;;;;;;5025076;28;20034;-58
2022/05/03 13:29:00;;;;;;;8.80;5.25;;;;;;;;;;5029315;28;20344;-58
2022/05/03 13:34:57;;;;;;;6.88;5.22;;;;;;;;;;5045364;28;20065;-58
2022/05/03 13:40:30;;;;;;;11.10;5.35;;;;;;;;;;5043350;28;20083;-58
2022/05/03 13:43:12;;;;;;;7.35;4.90;;;;;;;;;;5065314;28;20033;-58
2022/05/03 13:45:47;;;;;;;4.70;4.13;;;;;;;;;;5084830;28;20101;-58
2022/05/03 13:48:38;;;;;;;4.22;3.83;;;;;;;;;;5085097;28;20032;-58
2022/05/03 13:51:08;;;;;;;4.10;3.53;;;;;;;;;;5083372;28;20036;-58
2022/05/03 13:53:38;;;;;;;4.63;4.15;;;;;;;;;;5082141;28;20067;-57
2022/05/03 13:56:19;;;;;;;4.35;3.92;;;;;;;;;;5083902;28;20071;-58
2022/05/03 13:59:04;;;;;;;5.95;4.65;;;;;;;;;;5081957;28;20582;-58
2022/05/03 14:02:02;;;;;;;8.60;4.53;;;;;;;;;;5044337;28;20363;-58
2022/05/03 14:04:52;;;;;;;4.20;3.80;;;;;;;;;;4920169;29;20168;-59
2022/05/03 14:10:52;;;;;;;5.25;4.47;;;;;;;;;;5040480;28;20088;-60
2022/05/03 14:13:49;;;;;;;4.90;4.10;;;;;;;;;;4958734;28;20030;-58
2022/05/03 14:19:40;;;;;;;;;;;;;;;;;;;;;
2022/05/03 14:22:08;;;;;;;6.68;4.05;;;;;;;;;;4950659;29;20553;-58
2022/05/03 14:27:48;;;;;;;4.75;4.28;;;;;;;;;;5003276;28;20116;-58
2022/05/03 14:36:47;;;;;;;4.70;3.00;;;;;;;;;;5016843;28;20040;-57
2022/05/03 14:42:37;;;;;;;4.28;2.63;;;;;;;;;;5082820;28;20040;-57
2022/05/03 14:48:09;;;;;;;3.10;2.50;;;;;;;;;;5076710;28;20082;-58
2022/05/03 14:50:48;;;;;;;;;;;;;;;;;;;;;
2022/05/03 14:53:30;;;;;;;3.85;2.83;;;;;;;;;;5086333;28;20058;-58
2022/05/03 15:04:56;;;;;;;6.95;3.53;;;;;;;;;;5089447;28;20060;-58
2022/05/03 15:07:37;;;;;;;4.18;2.70;;;;;;;;;;5070827;28;20033;-57
2022/05/03 15:10:33;;;;;;;7.03;2.63;;;;;;;;;;5087430;28;20051;-58
2022/05/03 15:19:25;;;;;;;;;;;;;;;;;;;;;
2022/05/03 15:22:13;;;;;;;7.05;2.35;;;;;;;;;;5037794;28;20105;-58
2022/05/03 15:27:39;;;;;;;4.05;2.42;;;;;;;;;;5060618;28;20059;-58
2022/05/03 15:30:11;;;;;;;3.47;2.35;;;;;;;;;;5055460;28;20094;-58
2022/05/03 15:32:58;;;;;;;2.95;1.90;;;;;;;;;;5105916;28;20039;-58
2022/05/03 15:39:04;;;;;;;4.00;2.35;;;;;;;;;;5045977;28;20029;-58
2022/05/03 15:41:39;;;;;;;2.80;2.30;;;;;;;;;;5046189;28;20121;-58
2022/05/03 15:44:44;;;;;;;;;;;;;;;;;;;;;
2022/05/03 15:47:45;;;;;;;4.07;3.03;;;;;;;;;;5078898;28;20457;-58
2022/05/03 15:53:38;;;;;;;5.10;2.72;;;;;;;;;;5034252;28;20525;-58
2022/05/03 15:56:36;;;;;;;3.85;2.80;;;;;;;;;;5035131;28;20037;-58
2022/05/03 15:59:15;;;;;;;3.63;2.45;;;;;;;;;;5037460;28;20045;-58
2022/05/03 16:02:07;;;;;;;4.38;2.92;;;;;;;;;;5050031;28;20036;-58
2022/05/03 16:05:01;;;;;;;;;;;;;;;;;;;;;
2022/05/03 16:07:54;;;;;;;3.33;2.50;;;;;;;;;;5043757;28;20049;-58
2022/05/03 16:11:10;;;;;;;3.13;2.08;;;;;;;;;;5051200;28;20555;-58
2022/05/03 16:17:07;;;;;;;2.72;1.60;;;;;;;;;;5082470;28;20044;-60
2022/05/03 16:19:52;;;;;;;4.55;2.13;;;;;;;;;;5078058;28;20038;-57
2022/05/03 16:23:05;;;;;;;4.15;2.22;;;;;;;;;;5076086;28;20426;-58
2022/05/03 16:31:50;;;;;;;7.03;3.05;;;;;;;;;;5037066;28;20029;-58
2022/05/03 16:34:51;;;;;;;3.97;1.80;;;;;;;;;;5012196;28;20465;-58
2022/05/03 16:43:10;;;;;;;5.60;2.47;;;;;;;;;;5095343;28;20030;-58
2022/05/03 16:45:46;;;;;;;3.03;2.22;;;;;;;;;;5095785;28;20056;-58
2022/05/03 16:48:33;;;;;;;5.15;2.50;;;;;;;;;;5076895;28;20515;-58
2022/05/03 16:51:14;;;;;;;4.57;2.90;;;;;;;;;;5095913;28;20024;-58
2022/05/03 16:54:12;;;;;;;3.85;3.13;;;;;;;;;;5077755;28;20043;-58
2022/05/03 16:56:50;;;;;;;3.88;3.35;;;;;;;;;;5063773;28;20032;-58
2022/05/03 16:59:21;;;;;;;3.42;2.70;;;;;;;;;;5077659;28;20040;-58
2022/05/03 17:02:28;;;;;;;4.78;2.92;;;;;;;;;;5096365;28;20020;-59
2022/05/03 17:05:07;;;;;;;3.17;2.58;;;;;;;;;;5076722;28;20059;-58
2022/05/03 17:08:15;;;;;;;;;;;;;;;;;;;;;
2022/05/03 17:10:42;;;;;;;3.72;3.10;;;;;;;;;;5068343;28;20083;-59
2022/05/03 17:13:41;;;;;;;5.85;3.58;;;;;;;;;;5075651;28;20035;-58
2022/05/03 17:16:32;;;;;;;3.40;3.00;;;;;;;;;;5068438;28;20553;-58
2022/05/03 17:19:17;;;;;;;5.47;4.18;;;;;;;;;;5072955;28;20433;-58
2022/05/03 17:25:07;;;;;;;5.63;3.45;;;;;;;;;;4973862;28;20034;-58
2022/05/03 17:27:54;;;;;;;4.70;3.65;;;;;;;;;;5063781;28;20036;-58
2022/05/03 17:30:36;;;;;;;4.78;3.30;;;;;;;;;;5055549;28;20032;-59
2022/05/03 17:33:13;;;;;;;5.57;3.78;;;;;;;;;;5056342;28;20460;-59
2022/05/03 17:35:57;;;;;;;5.28;4.07;;;;;;;;;;5074173;28;20024;-59
2022/05/03 17:38:23;;;;;;;6.40;5.03;;;;;;;;;;5040662;28;20486;-59
2022/05/03 17:41:29;;;;;;;;;;;;;;;;;;;;;
2022/05/03 17:44:11;;;;;;;9.73;3.63;;;;;;;;;;5074304;28;20401;-59
2022/05/03 17:47:03;;;;;;;5.32;3.50;;;;;;;;;;5073625;28;20146;-59
2022/05/03 17:55:22;;;;;;;5.35;3.63;;;;;;;;;;5074365;28;20031;-59
2022/05/03 17:58:12;;;;;;;5.50;3.75;;;;;;;;;;5067159;28;20032;-59
2022/05/03 18:01:00;;;;;;;6.07;4.65;;;;;;;;;;5074794;28;20020;-59
2022/05/03 18:03:32;;;;;;;4.50;3.50;;;;;;;;;;5074990;28;20078;-59
2022/05/03 18:06:18;;;;;;;6.13;3.63;;;;;;;;;;5074880;28;20111;-59
2022/05/03 18:09:09;;;;;;;3.67;2.95;;;;;;;;;;5074958;28;20040;-58
2022/05/03 18:14:57;;;;;;;3.83;2.63;;;;;;;;;;5094906;28;20081;-58
2022/05/03 18:20:31;;;;;;;3.83;2.95;;;;;;;;;;5032014;28;20092;-58
2022/05/03 18:23:04;;;;;;;6.93;3.33;;;;;;;;;;5025276;28;20036;-57
2022/05/03 18:25:40;;;;;;;4.57;3.03;;;;;;;;;;5077178;28;20028;-59
2022/05/03 18:28:19;;;;;;;4.90;3.03;;;;;;;;;;5094481;28;20032;-59
2022/05/03 18:36:57;;;;;;;3.88;3.28;;;;;;;;;;5083780;28;20035;-57
2022/05/03 18:39:42;;;;;;;4.25;2.80;;;;;;;;;;5093045;28;20123;-57
2022/05/03 18:45:22;;;;;;;3.60;2.75;;;;;;;;;;5038284;28;20037;-57
2022/05/03 18:48:08;;;;;;;3.75;3.03;;;;;;;;;;5014595;28;20124;-57
2022/05/03 18:53:52;;;;;;;;;;;;;;;;;;;;;
2022/05/03 18:59:47;;;;;;;5.25;3.72;;;;;;;;;;5089623;28;20087;-56
2022/05/03 19:02:37;;;;;;;6.55;3.30;;;;;;;;;;5093901;28;20067;-57
2022/05/03 19:08:58;;;;;;;5.25;3.83;;;;;;;;;;5078063;28;20474;-57
2022/05/03 19:11:33;;;;;;;4.45;3.47;;;;;;;;;;5024753;28;20517;-57
2022/05/03 19:14:31;;;;;;;5.00;3.28;;;;;;;;;;5073306;28;20090;-58
2022/05/03 19:17:16;;;;;;;3.90;3.22;;;;;;;;;;5011552;28;20026;-56
2022/05/03 19:20:04;;;;;;;4.25;3.05;;;;;;;;;;5008935;28;20041;-57
2022/05/03 19:31:45;;;;;;;4.50;3.45;;;;;;;;;;5077009;28;20035;-58
2022/05/03 19:34:27;;;;;;;4.63;3.70;;;;;;;;;;5077985;28;20343;-57
2022/05/03 19:37:25;;;;;;;3.28;2.97;;;;;;;;;;5059754;28;20025;-58
2022/05/03 19:43:48;;;;;;;3.80;3.35;;;;;;;;;;5077870;28;20358;-57
2022/05/03 19:46:23;;;;;;;4.90;3.50;;;;;;;;;;5045400;28;20029;-58
2022/05/03 19:49:15;;;;;;;4.38;3.58;;;;;;;;;;5076955;28;20046;-57
2022/05/03 19:55:14;;;;;;;5.47;4.22;;;;;;;;;;5060614;28;20086;-58
2022/05/03 19:57:53;;;;;;;5.22;3.50;;;;;;;;;;5066178;28;20032;-58
2022/05/03 20:00:41;;;;;;;6.22;3.97;;;;;;;;;;5074562;28;20463;-59
2022/05/03 20:08:57;;;;;;;5.95;4.55;;;;;;;;;;5077042;28;20059;-57
2022/05/03 20:11:28;;;;;;;4.10;3.38;;;;;;;;;;5060812;28;20048;-58
2022/05/03 20:14:05;;;;;;;4.53;4.10;;;;;;;;;;5059332;28;20378;-57
2022/05/03 20:26:58;;;;;;;4.80;3.88;;;;;;;;;;5076533;28;20495;-58
2022/05/03 20:29:23;;;;;;;3.58;3.25;;;;;;;;;;5074501;28;20044;-58
2022/05/03 20:32:16;;;;;;;5.85;4.00;;;;;;;;;;5057648;28;20111;-59
2022/05/03 20:35:13;;;;;;;;;;;;;;;;;;;;;
2022/05/03 20:38:04;;;;;;;6.07;4.53;;;;;;;;;;5034849;28;20422;-59
2022/05/03 20:41:00;;;;;;;6.28;4.35;;;;;;;;;;5058741;28;20397;-58
2022/05/03 20:43:57;;;;;;;;;;;;;;;;;;;;;
2022/05/03 20:50:02;;;;;;;;;;;;;;;;;;;;;
2022/05/03 20:52:59;;;;;;;5.75;4.10;;;;;;;;;;5076175;28;20103;-56
2022/05/03 20:55:39;;;;;;;5.18;4.60;;;;;;;;;;5077180;28;20404;-58
2022/05/03 20:58:20;;;;;;;5.22;4.57;;;;;;;;;;5093824;28;20481;-58
2022/05/03 21:04:15;;;;;;;6.15;5.38;;;;;;;;;;5088758;28;20042;-58
2022/05/03 21:06:49;;;;;;;8.77;5.45;;;;;;;;;;5083005;28;20085;-58
2022/05/03 21:12:01;;;;;;;5.25;4.53;;;;;;;;;;5098218;28;20059;-58
2022/05/03 21:14:43;;;;;;;6.28;5.68;;;;;;;;;;5108976;28;20105;-58
2022/05/03 21:17:32;;;;;;;6.13;4.45;;;;;;;;;;5108946;28;20045;-58
2022/05/03 21:23:27;;;;;;;;;;;;;;;;;;5085147;28;20034;-56
2022/05/03 21:26:17;;;;;;;7.00;5.32;;;;;;;;;;5108602;28;19914;-57
2022/05/03 21:29:11;;;;;;;6.35;5.40;;;;;;;;;;5098525;28;20058;-58
2022/05/03 21:31:58;;;;;;;6.20;5.55;;;;;;;;;;5108414;28;20032;-58
2022/05/03 21:34:39;;;;;;;7.97;5.78;;;;;;;;;;5090810;28;20032;-58
2022/05/03 21:37:35;;;;;;;7.63;5.32;;;;;;;;;;5106605;28;20051;-56
2022/05/03 21:40:24;;;;;;;6.53;4.82;;;;;;;;;;5108589;28;20153;-58
2022/05/03 21:43:03;;;;;;;7.85;4.97;;;;;;;;;;5090996;28;20044;-58
2022/05/03 21:45:56;;;;;;;7.10;6.13;;;;;;;;;;5108959;28;20039;-57
2022/05/03 21:48:33;;;;;;;6.43;5.60;;;;;;;;;;5108774;28;20027;-58
2022/05/03 21:57:04;;;;;;;6.88;5.15;;;;;;;;;;5100000;28;20060;-57
2022/05/03 22:02:59;;;;;;;5.80;5.20;;;;;;;;;;5108425;28;20066;-58
2022/05/03 22:05:50;;;;;;;6.40;5.13;;;;;;;;;;5108378;28;20016;-57
2022/05/03 22:08:46;;;;;;;6.70;5.35;;;;;;;;;;5108119;28;20536;-57
2022/05/03 22:14:49;;;;;;;5.78;5.28;;;;;;;;;;5069877;28;20092;-57
2022/05/03 22:21:13;;;;;;;7.05;4.80;;;;;;;;;;5108097;28;20091;-58
2022/05/03 22:27:17;;;;;;;6.20;5.35;;;;;;;;;;5073365;28;20114;-58
2022/05/03 22:30:02;;;;;;;6.30;5.70;;;;;;;;;;5108078;28;20784;-57
2022/05/03 22:32:47;;;;;;;5.97;5.35;;;;;;;;;;5107915;28;20476;-58
2022/05/03 22:44:31;;;;;;;6.28;5.25;;;;;;;;;;5108318;28;20088;-58
2022/05/03 22:47:13;;;;;;;;;;;;;;;;;;;;;
2022/05/03 22:53:03;;;;;;;6.90;5.15;;;;;;;;;;5107747;28;20102;-58
2022/05/03 22:58:54;;;;;;;5.65;5.07;;;;;;;;;;5089926;28;20054;-58
2022/05/03 23:04:14;;;;;;;5.07;4.45;;;;;;;;;;5092757;28;20047;-58
2022/05/03 23:12:44;;;;;;;8.02;5.35;;;;;;;;;;5037806;28;20085;-57
2022/05/03 23:18:07;;;;;;;7.40;5.35;;;;;;;;;;5090412;28;20039;-57
2022/05/03 23:20:48;;;;;;;5.55;5.05;;;;;;;;;;5090419;28;20088;-58
2022/05/03 23:23:20;;;;;;;5.88;4.57;;;;;;;;;;5090960;28;20025;-58
2022/05/03 23:26:15;;;;;;;8.15;5.53;;;;;;;;;;5089904;28;20036;-58
2022/05/03 23:29:01;;;;;;;6.85;5.25;;;;;;;;;;5091024;28;20035;-56
2022/05/03 23:31:37;;;;;;;6.90;6.25;;;;;;;;;;5090980;28;20025;-58
2022/05/03 23:40:54;;;;;;;6.85;6.20;;;;;;;;;;5048497;28;20036;-58
2022/05/03 23:43:30;;;;;;;7.55;6.57;;;;;;;;;;5060292;28;20039;-58
2022/05/03 23:46:15;;;;;;;7.65;6.85;;;;;;;;;;5073577;28;20036;-57
2022/05/03 23:48:56;;;;;;;6.18;5.57;;;;;;;;;;5090394;28;20039;-60
2022/05/03 23:51:32;;;;;;;7.70;6.90;;;;;;;;;;5090617;28;20020;-58
2022/05/03 23:57:15;;;;;;;7.85;6.45;;;;;;;;;;5048188;28;20061;-57